Jump to content

V@S

Members
  • Content Count

    53
  • Joined

  • Last visited

Community Reputation

-4 Удовлетворительная

About V@S

  • Rank
    Смышленый

Дополнительная информация

  • Место в рейтинге
    9680

Profile Information

  • Location
    Черкассы
  1. Всем доброго вечера. Пробовал скачать ИВАС по выше указанной сцилке... пишет такого не найдено. Стянул ПроКонтролер поставил подключился и... смотрю статистику 1 чел в сети т.е. я Причем СИ показало тоже одного чела: мою позицию. Вопрос: мож я нетуда подключился или что-то не так сделал? Подключался к серваку взятого из СИ de1.ivan.ivao.org. Помогите плиз!
  2. Еще был замечен один глюк правда сам МЕТАР не сохранил... В общем при прослушивании запинался "давление", а само значение не говорила, раз 5 прослушивал результат тотже был
  3. У меня было так же, пока я FSUIPC не зарегестрировал. Пока что всё красиво, но вылетает периодически, даже когда просто в порту стоишь. Точно. Проге нужен зарегистрированый фсупик. Читал что приобновлении погоды мерцает панель. Подтверждаю, тоже самое причем это длиццо примерно секунд 15-30
  4. Уважаемые, поставил софтинку, запустил сим, ПО, все работает кроме одно постоянно берет погоду DXXX 081500Z 20007KT 9999 FEW016 SCT120 27/23 Q1014 NOSIG Пробовал Борисполь, Шереметьево, Домодедово, Симферополь... погода таже. Подскажите плиз вчем трабла и как от нее избавиться. З.Ы. пробовал загружать погоду симом, после чего имже очистел. ситуация не меняетцо :ph34r:
×